Time;durP1;ratioP1;P1;durP2;ratioP2;P2;SDS_P1;SDS_P2;PMS_P1;PMS_P2;Temp;Humidity;BMP_temperature;BMP_pressure;BME280_temperature;BME280_humidity;BME280_pressure;Samples;Min_cycle;Max_cycle;Signal;HPM_P1;HPM_P2
2022/02/05 00:00:34;;;;;;;10.25;3.42;;;;;;;2.62;100.00;101769.44;5263429;28;20344;-83
2022/02/05 00:03:15;;;;;;;16.75;3.42;;;;;;;2.61;100.00;101773.88;5271232;28;20019;-82
2022/02/05 00:20:17;;;;;;;11.30;3.28;;;;;;;2.53;100.00;101774.31;5289911;28;20035;-83
2022/02/05 00:39:29;;;;;;;10.88;3.17;;;;;;;2.52;100.00;101799.13;5289564;28;20345;-82
2022/02/05 00:44:49;;;;;;;10.73;2.70;;;;;;;2.49;100.00;101793.13;5289413;28;20041;-84
2022/02/05 00:47:19;;;;;;;17.58;3.28;;;;;;;2.50;100.00;101793.03;5254830;28;20641;-78
2022/02/05 00:49:56;;;;;;;21.02;3.83;;;;;;;2.58;100.00;101800.53;5288227;28;20078;-78
2022/02/05 00:52:27;;;;;;;15.55;3.53;;;;;;;2.64;100.00;101809.91;5288341;28;20046;-78
2022/02/05 00:55:05;;;;;;;13.90;2.97;;;;;;;2.60;100.00;101811.88;5269936;28;20020;-78
2022/02/05 00:57:45;;;;;;;14.95;3.17;;;;;;;2.58;100.00;101824.38;5288082;28;20035;-78
2022/02/05 01:00:18;;;;;;;13.90;3.20;;;;;;;2.54;100.00;101828.16;5287469;28;20054;-78
2022/02/05 01:02:49;;;;;;;11.85;2.65;;;;;;;2.53;100.00;101826.44;5252980;28;20024;-78
2022/02/05 01:05:20;;;;;;;19.52;2.65;;;;;;;2.50;100.00;101832.75;5288352;28;20479;-78
2022/02/05 01:07:50;;;;;;;16.13;4.05;;;;;;;2.45;100.00;101831.34;5288304;28;20075;-78
2022/02/05 01:10:21;;;;;;;8.02;3.10;;;;;;;2.40;100.00;101823.66;5287852;28;20020;-78
2022/02/05 01:12:58;;;;;;;19.00;3.28;;;;;;;2.34;100.00;101834.63;5288491;28;20355;-78
2022/02/05 01:15:36;;;;;;;14.13;3.30;;;;;;;2.29;100.00;101839.31;5288284;28;20039;-78
2022/02/05 01:18:09;;;;;;;13.80;2.97;;;;;;;2.28;100.00;101840.28;5288640;28;20027;-78
2022/02/05 01:23:35;;;;;;;10.93;3.10;;;;;;;2.27;100.00;101844.72;5287010;28;20024;-78
2022/02/05 01:26:14;;;;;;;13.13;3.20;;;;;;;2.27;100.00;101854.47;5287666;28;20028;-78
2022/02/05 01:28:49;;;;;;;12.90;3.45;;;;;;;2.26;100.00;101850.97;5287524;28;20042;-79
2022/02/05 01:31:25;;;;;;;10.18;2.85;;;;;;;2.24;100.00;101854.63;5265943;28;20451;-78
2022/02/05 01:48:54;;;;;;;17.45;2.97;;;;;;;2.22;100.00;101864.47;5286510;28;20038;-78
2022/02/05 01:51:05;;;;;;;12.63;2.50;;;;;;;2.33;100.00;101870.84;5273752;28;20110;-78
2022/02/05 01:54:02;;;;;;;7.25;2.75;;;;;;;2.32;100.00;101865.63;5272285;28;20019;-78
2022/02/05 01:59:30;;;;;;;12.57;2.67;;;;;;;2.36;100.00;101868.94;5286737;28;19911;-78
2022/02/05 02:04:54;;;;;;;14.77;2.78;;;;;;;2.38;100.00;101885.63;5276066;28;20031;-78
2022/02/05 02:16:08;;;;;;;7.68;2.67;;;;;;;2.41;100.00;101909.25;5273682;28;20026;-77
2022/02/05 02:21:41;;;;;;;16.00;2.95;;;;;;;2.45;100.00;101906.34;5285713;28;20027;-77
2022/02/05 02:24:28;;;;;;;10.23;3.35;;;;;;;2.43;100.00;101897.66;5285684;28;20034;-77
2022/02/05 02:32:16;;;;;;;15.73;2.85;;;;;;;2.36;100.00;101912.19;5280311;28;20019;-77
2022/02/05 02:34:51;;;;;;;11.80;2.80;;;;;;;2.42;100.00;101913.63;5286094;28;20363;-77
2022/02/05 02:37:30;;;;;;;11.18;3.55;;;;;;;2.42;100.00;101926.88;5285865;28;20015;-77
2022/02/05 02:42:56;;;;;;;14.10;2.72;;;;;;;2.47;100.00;101932.78;5285823;28;20459;-79
2022/02/05 02:45:29;;;;;;;7.20;2.40;;;;;;;2.51;100.00;101926.31;5285834;28;20514;-77
2022/02/05 02:48:00;;;;;;;7.07;2.53;;;;;;;2.57;100.00;101926.84;5285547;28;20026;-77
2022/02/05 02:59:22;;;;;;;10.55;2.92;;;;;;;2.72;100.00;101927.75;5286199;28;20028;-77
2022/02/05 03:01:59;;;;;;;16.23;3.72;;;;;;;2.71;100.00;101938.44;5285411;28;20034;-77
2022/02/05 03:04:30;;;;;;;13.23;5.00;;;;;;;2.67;100.00;101940.41;5284891;28;20028;-77
2022/02/05 03:07:00;;;;;;;20.00;6.47;;;;;;;2.65;100.00;101938.78;5285652;28;20390;-77
2022/02/05 03:09:31;;;;;;;28.98;11.55;;;;;;;2.65;100.00;101937.00;5285119;28;20073;-78
2022/02/05 03:12:03;;;;;;;29.35;12.63;;;;;;;2.63;100.00;101949.47;5285434;28;20124;-77
2022/02/05 03:14:34;;;;;;;13.77;4.97;;;;;;;2.58;100.00;101947.09;5286515;28;20035;-77
2022/02/05 03:17:15;;;;;;;12.45;5.07;;;;;;;2.58;100.00;101954.19;5286702;28;20023;-77
2022/02/05 03:19:48;;;;;;;15.07;3.90;;;;;;;2.49;100.00;101954.72;5285376;28;20020;-77
2022/02/05 03:22:21;;;;;;;21.52;6.20;;;;;;;2.43;100.00;101957.72;5272236;28;20024;-77
2022/02/05 03:24:51;;;;;;;12.90;2.55;;;;;;;2.39;100.00;101957.03;5285169;28;20087;-77
2022/02/05 03:27:22;;;;;;;20.55;5.63;;;;;;;2.45;100.00;101958.47;5285193;28;20024;-77
2022/02/05 03:29:53;;;;;;;14.15;4.85;;;;;;;2.57;100.00;101957.78;5285130;28;20027;-77
2022/02/05 03:32:24;;;;;;;19.35;4.65;;;;;;;2.66;100.00;101962.56;5282089;28;20371;-77
2022/02/05 03:34:55;;;;;;;10.38;3.33;;;;;;;2.74;100.00;101970.06;5285463;28;20101;-77
2022/02/05 03:37:25;;;;;;;12.02;4.18;;;;;;;2.77;100.00;101972.53;5285327;28;20060;-77
2022/02/05 03:39:56;;;;;;;10.00;3.05;;;;;;;2.78;100.00;101971.59;5267214;28;20382;-77
2022/02/05 03:42:26;;;;;;;9.98;3.03;;;;;;;2.77;100.00;101980.50;5285346;28;20394;-77
2022/02/05 03:44:57;;;;;;;12.48;2.90;;;;;;;2.75;100.00;101982.38;5285469;28;20169;-77
2022/02/05 03:47:31;;;;;;;16.02;3.65;;;;;;;2.74;100.00;101980.66;5285239;28;20024;-77
2022/02/05 03:50:03;;;;;;;20.38;7.93;;;;;;;2.72;100.00;101990.50;5285311;28;20535;-77
2022/02/05 03:52:34;;;;;;;11.60;5.70;;;;;;;2.76;100.00;101977.00;5285376;28;20034;-77
2022/02/05 03:55:05;;;;;;;12.98;4.00;;;;;;;2.76;100.00;101994.66;5285008;28;20024;-78
2022/02/05 03:57:35;;;;;;;8.48;3.50;;;;;;;2.78;100.00;101984.84;5284549;28;20399;-77
2022/02/05 04:00:08;;;;;;;18.25;5.10;;;;;;;2.78;100.00;101985.69;5266311;28;20344;-77
2022/02/05 04:02:38;;;;;;;20.35;2.60;;;;;;;2.74;100.00;101983.31;5286314;28;20020;-77
2022/02/05 04:05:09;;;;;;;14.93;2.55;;;;;;;2.69;100.00;101988.88;5289404;28;20023;-77
2022/02/05 04:07:43;;;;;;;10.93;3.70;;;;;;;2.60;100.00;101984.09;5289680;28;20038;-77
2022/02/05 04:10:17;;;;;;;15.60;5.35;;;;;;;2.53;100.00;101990.69;5289962;28;20024;-77
2022/02/05 04:18:25;;;;;;;9.50;3.10;;;;;;;2.29;100.00;101992.91;5289353;28;20026;-77
2022/02/05 04:20:56;;;;;;;14.80;2.88;;;;;;;2.24;100.00;101993.16;5288990;28;20027;-77
2022/02/05 04:23:27;;;;;;;8.82;2.50;;;;;;;2.20;100.00;102004.00;5289033;28;20445;-77
2022/02/05 04:25:57;;;;;;;10.85;2.35;;;;;;;2.17;100.00;101999.75;5289269;28;20024;-77
2022/02/05 04:28:28;;;;;;;13.60;2.88;;;;;;;2.15;100.00;102006.91;5289246;28;20028;-77
2022/02/05 04:30:58;;;;;;;7.55;2.08;;;;;;;2.11;100.00;102008.03;5284489;28;20012;-77
2022/02/05 04:33:29;;;;;;;17.65;2.85;;;;;;;2.10;100.00;102011.59;5268897;28;20039;-77
2022/02/05 04:36:00;;;;;;;13.55;2.38;;;;;;;2.03;100.00;102011.06;5289243;28;20023;-77
2022/02/05 04:38:31;;;;;;;132.23;66.70;;;;;;;2.05;100.00;102016.28;5289593;28;20445;-77
2022/02/05 04:41:10;;;;;;;17.08;4.85;;;;;;;2.00;100.00;102013.03;5288780;28;20019;-77
2022/02/05 04:55:09;;;;;;;15.07;2.55;;;;;;;2.06;100.00;102020.66;5276301;28;20072;-77
2022/02/05 04:57:52;;;;;;;9.52;4.07;;;;;;;2.03;100.00;102020.81;5289051;28;20042;-77
2022/02/05 05:00:50;;;;;;;21.60;3.67;;;;;;;1.94;100.00;102030.09;5288954;28;20231;-77
2022/02/05 05:20:09;;;;;;;8.18;2.28;;;;;;;1.73;100.00;102031.22;5287892;28;20031;-77
2022/02/05 05:22:39;;;;;;;12.98;3.30;;;;;;;1.70;100.00;102034.88;5287082;28;20383;-77
2022/02/05 05:25:10;;;;;;;20.02;2.85;;;;;;;1.63;100.00;102044.09;5286962;28;20035;-77
2022/02/05 05:27:40;;;;;;;8.13;2.53;;;;;;;1.58;100.00;102046.09;5287423;28;20026;-77
2022/02/05 05:30:11;;;;;;;10.38;2.60;;;;;;;1.52;100.00;102043.78;5287751;28;20402;-77
2022/02/05 05:32:42;;;;;;;20.13;3.22;;;;;;;1.49;100.00;102051.88;5282246;28;20027;-77
2022/02/05 05:35:12;;;;;;;27.27;13.48;;;;;;;1.45;100.00;102052.94;5286806;28;20020;-77
2022/02/05 05:37:48;;;;;;;14.20;3.85;;;;;;;1.41;100.00;102056.72;5288040;28;20023;-78
2022/02/05 05:40:19;;;;;;;18.02;6.40;;;;;;;1.38;100.00;102059.50;5287802;28;20402;-78
2022/02/05 05:46:01;;;;;;;14.70;2.67;;;;;;;1.37;100.00;102057.78;5286249;28;20035;-78
2022/02/05 05:48:31;;;;;;;13.88;2.40;;;;;;;1.37;100.00;102061.28;5274607;28;20023;-77
2022/02/05 05:51:01;;;;;;;15.20;3.83;;;;;;;1.45;100.00;102061.72;5286763;28;20096;-77
2022/02/05 05:53:32;;;;;;;14.25;2.83;;;;;;;1.45;100.00;102067.03;5268669;28;20429;-77
2022/02/05 05:56:03;;;;;;;13.10;2.90;;;;;;;1.44;100.00;102065.31;5286411;28;20537;-78
2022/02/05 05:58:34;;;;;;;10.90;2.60;;;;;;;1.43;100.00;102073.34;5281600;28;20022;-77
2022/02/05 06:01:04;;;;;;;11.07;3.15;;;;;;;1.43;100.00;102078.63;5282241;28;20039;-77
2022/02/05 06:03:35;;;;;;;17.90;3.30;;;;;;;1.40;100.00;102074.34;5281592;28;20065;-78
2022/02/05 06:06:05;;;;;;;12.60;2.90;;;;;;;1.38;100.00;102076.22;5286877;28;20431;-78
2022/02/05 06:08:36;;;;;;;14.50;3.50;;;;;;;1.37;100.00;102082.44;5287067;28;20523;-79
2022/02/05 06:11:06;;;;;;;20.13;5.15;;;;;;;1.38;100.00;102075.38;5297049;28;20020;-79
2022/02/05 06:13:37;;;;;;;10.43;2.65;;;;;;;1.35;100.00;102075.50;5289933;28;20024;-77
2022/02/05 06:16:12;;;;;;;17.63;3.50;;;;;;;1.34;100.00;102073.78;5290576;27;20027;-78
2022/02/05 06:18:43;;;;;;;;;;;;;;;1.32;100.00;102075.69;5288757;27;20484;-77
2022/02/05 06:21:13;;;;;;;11.40;3.38;;;;;;;1.34;100.00;102082.59;5285449;28;19916;-77
2022/02/05 06:23:44;;;;;;;12.50;3.45;;;;;;;1.34;100.00;102087.00;5266748;28;20027;-77
2022/02/05 06:26:14;;;;;;;15.32;4.93;;;;;;;1.35;100.00;102091.38;5269570;28;20418;-80
2022/02/05 06:28:45;;;;;;;39.65;16.90;;;;;;;1.33;100.00;102090.59;5288174;28;20447;-80
2022/02/05 06:31:15;;;;;;;17.88;4.53;;;;;;;1.37;100.00;102093.00;5283275;28;20084;-82
2022/02/05 06:33:47;;;;;;;16.20;3.53;;;;;;;1.38;100.00;102102.66;5267796;28;20031;-80
2022/02/05 06:36:18;;;;;;;15.20;4.88;;;;;;;1.36;100.00;102099.25;5285738;28;20026;-80
2022/02/05 06:38:48;;;;;;;18.80;4.20;;;;;;;1.34;100.00;102094.94;5267821;28;20019;-79
2022/02/05 06:41:19;;;;;;;23.50;4.10;;;;;;;1.28;100.00;102089.03;5284952;28;20031;-77
2022/02/05 06:43:49;;;;;;;19.45;4.38;;;;;;;1.26;100.00;102087.41;5284600;28;20031;-77
2022/02/05 06:46:20;;;;;;;19.27;3.90;;;;;;;1.28;100.00;102091.69;5286087;28;20039;-79
2022/02/05 06:48:50;;;;;;;20.00;3.80;;;;;;;1.31;100.00;102087.19;5268089;28;20034;-79
2022/02/05 06:51:20;;;;;;;14.77;3.63;;;;;;;1.28;100.00;102093.47;5268313;28;20058;-79
2022/02/05 06:53:51;;;;;;;23.23;4.75;;;;;;;1.29;100.00;102096.03;5288819;28;20026;-78
2022/02/05 06:56:21;;;;;;;21.33;4.03;;;;;;;1.27;100.00;102100.53;5292890;28;20023;-78
2022/02/05 06:58:52;;;;;;;19.17;7.85;;;;;;;1.33;100.00;102094.09;5285177;28;20023;-79
2022/02/05 07:01:22;;;;;;;25.80;11.05;;;;;;;1.35;100.00;102096.66;5284562;28;20024;-79
2022/02/05 07:03:53;;;;;;;20.38;4.90;;;;;;;1.34;100.00;102102.88;5277223;28;20971;-78
2022/02/05 07:06:23;;;;;;;24.02;5.28;;;;;;;1.40;100.00;102098.13;5273972;28;20141;-78
2022/02/05 07:08:55;;;;;;;27.38;8.27;;;;;;;1.42;100.00;102103.38;5257338;28;20386;-79
2022/02/05 07:11:26;;;;;;;15.93;4.18;;;;;;;1.39;100.00;102100.88;5273611;28;20099;-79
2022/02/05 07:13:57;;;;;;;12.13;4.05;;;;;;;1.37;100.00;102108.03;5256431;28;20099;-78
2022/02/05 07:16:34;;;;;;;16.90;3.85;;;;;;;1.33;100.00;102109.09;5274120;28;20036;-79
2022/02/05 07:21:39;;;;;;;14.20;3.55;;;;;;;1.33;100.00;102117.03;5273802;28;20046;-79
2022/02/05 07:24:21;;;;;;;16.42;3.28;;;;;;;1.32;100.00;102117.97;5273938;28;20030;-79
2022/02/05 07:29:40;;;;;;;28.52;3.70;;;;;;;1.36;100.00;102120.41;5272814;28;20032;-78
2022/02/05 07:32:11;;;;;;;14.77;3.45;;;;;;;1.42;100.00;102119.22;5273331;28;20078;-77
2022/02/05 07:34:41;;;;;;;16.52;4.05;;;;;;;1.50;100.00;102120.53;5274007;28;20019;-77
2022/02/05 07:37:12;;;;;;;15.60;3.10;;;;;;;1.55;100.00;102123.81;5275874;28;20049;-77
2022/02/05 07:39:47;;;;;;;15.15;4.90;;;;;;;1.65;100.00;102118.06;5278583;28;20027;-78
2022/02/05 07:42:18;;;;;;;13.30;5.90;;;;;;;1.76;100.00;102127.19;5277970;28;20062;-78
2022/02/05 07:44:49;;;;;;;22.25;4.53;;;;;;;1.83;100.00;102130.38;5278951;28;20441;-78
2022/02/05 07:47:22;;;;;;;17.10;4.50;;;;;;;1.92;100.00;102131.69;5277905;28;20032;-78
2022/02/05 07:49:52;;;;;;;15.38;3.10;;;;;;;1.97;100.00;102133.16;5278247;28;20020;-78
2022/02/05 07:52:23;;;;;;;13.57;2.97;;;;;;;2.08;100.00;102146.69;5278096;28;20027;-77
2022/02/05 07:54:53;;;;;;;15.63;3.28;;;;;;;2.41;100.00;102158.22;5279599;28;20031;-77
2022/02/05 07:57:24;;;;;;;17.75;6.03;;;;;;;2.68;100.00;102158.56;5278278;28;20031;-77
2022/02/05 07:59:54;;;;;;;13.70;3.13;;;;;;;2.87;100.00;102156.63;5278147;28;20126;-77
2022/02/05 08:02:25;;;;;;;22.35;9.00;;;;;;;3.36;100.00;102165.31;5277581;28;20031;-77
2022/02/05 08:04:55;;;;;;;19.42;7.35;;;;;;;3.57;100.00;102168.53;5278904;28;20137;-84
2022/02/05 08:07:26;;;;;;;19.83;4.35;;;;;;;3.71;100.00;102169.50;5278129;28;20036;-77
2022/02/05 08:10:00;;;;;;;13.23;4.47;;;;;;;3.94;100.00;102171.69;5277605;28;20036;-77
2022/02/05 08:12:33;;;;;;;17.20;2.92;;;;;;;4.24;100.00;102163.66;5277236;28;20659;-77
2022/02/05 08:15:03;;;;;;;21.35;6.70;;;;;;;4.54;100.00;102176.03;5276519;28;20031;-77
2022/02/05 08:17:36;;;;;;;21.23;5.75;;;;;;;4.71;100.00;102180.28;5277183;28;20462;-77
2022/02/05 08:20:07;;;;;;;18.05;3.00;;;;;;;4.93;100.00;102165.56;5277032;28;20487;-77
2022/02/05 08:22:37;;;;;;;14.68;3.95;;;;;;;5.17;100.00;102178.22;5277482;28;20115;-77
2022/02/05 08:25:08;;;;;;;10.63;2.50;;;;;;;5.14;100.00;102173.13;5276230;28;20567;-77
2022/02/05 08:27:41;;;;;;;13.00;3.85;;;;;;;5.15;100.00;102174.81;5277578;28;20031;-77
2022/02/05 08:30:13;;;;;;;24.15;7.28;;;;;;;5.43;100.00;102168.56;5276703;28;20055;-77
2022/02/05 08:32:45;;;;;;;16.27;3.75;;;;;;;5.40;100.00;102160.78;5277351;28;20585;-77
2022/02/05 08:35:16;;;;;;;10.30;3.88;;;;;;;5.81;100.00;102166.00;5276873;28;20015;-77
2022/02/05 08:37:48;;;;;;;19.63;5.32;;;;;;;6.00;100.00;102164.81;5277481;28;20043;-77
2022/02/05 08:40:18;;;;;;;21.27;5.45;;;;;;;6.04;100.00;102166.31;5276427;28;20470;-77
2022/02/05 08:42:49;;;;;;;13.98;2.50;;;;;;;6.02;100.00;102168.19;5276460;28;20038;-77
2022/02/05 08:45:20;;;;;;;22.63;6.22;;;;;;;6.16;100.00;102163.63;5275561;28;20019;-77
2022/02/05 08:47:53;;;;;;;12.98;3.17;;;;;;;6.09;100.00;102172.16;5258650;28;20031;-77
2022/02/05 08:50:26;;;;;;;12.68;3.58;;;;;;;6.31;100.00;102155.53;5277226;28;20102;-77
2022/02/05 08:52:57;;;;;;;12.95;2.80;;;;;;;6.40;100.00;102158.41;5275925;28;20024;-77
2022/02/05 08:55:30;;;;;;;16.17;3.25;;;;;;;6.82;100.00;102155.47;5277931;28;20380;-83
2022/02/05 08:58:06;;;;;;;19.52;2.80;;;;;;;6.37;100.00;102153.28;5248410;28;20034;-83
2022/02/05 09:00:46;;;;;;;12.32;2.15;;;;;;;6.68;100.00;102169.81;5260003;28;20119;-77
2022/02/05 09:06:07;;;;;;;23.48;11.93;;;;;;;6.73;100.00;102165.88;5278668;28;20099;-77
2022/02/05 09:08:45;;;;;;;12.80;2.90;;;;;;;6.70;100.00;102155.41;5277278;28;20102;-80
2022/02/05 09:14:28;;;;;;;15.00;2.45;;;;;;;6.63;100.00;102166.63;5277927;28;20486;-80
2022/02/05 09:16:58;;;;;;;16.52;3.85;;;;;;;6.94;100.00;102155.47;5277737;28;20027;-80
2022/02/05 09:19:33;;;;;;;14.75;4.45;;;;;;;7.31;100.00;102167.94;5259841;28;20020;-81
2022/02/05 09:22:05;;;;;;;9.70;2.97;;;;;;;7.32;100.00;102162.47;5277282;28;20030;-80
2022/02/05 09:24:36;;;;;;;15.48;3.55;;;;;;;7.04;100.00;102185.00;5259341;28;20562;-79
2022/02/05 09:27:10;;;;;;;11.63;2.30;;;;;;;7.19;100.00;102189.22;5276834;28;20031;-80
2022/02/05 09:29:57;;;;;;;8.85;2.50;;;;;;;7.20;100.00;102177.59;5275616;28;20499;-80
2022/02/05 09:32:27;;;;;;;20.50;3.78;;;;;;;7.31;100.00;102192.81;5275314;28;20089;-80
2022/02/05 09:34:58;;;;;;;8.57;2.22;;;;;;;7.20;100.00;102201.63;5275827;28;20020;-80
2022/02/05 09:37:28;;;;;;;9.38;2.50;;;;;;;7.49;100.00;102198.63;5274951;28;20027;-79
2022/02/05 09:39:59;;;;;;;11.20;4.60;;;;;;;7.48;100.00;102212.94;5257454;28;20016;-80
2022/02/05 09:42:29;;;;;;;14.48;3.00;;;;;;;7.36;100.00;102216.50;5275162;28;20123;-80
2022/02/05 09:45:01;;;;;;;12.93;5.30;;;;;;;7.56;100.00;102217.72;5276300;28;20016;-80
2022/02/05 09:47:32;;;;;;;12.50;4.25;;;;;;;7.66;100.00;102210.72;5260589;28;20016;-79
2022/02/05 09:50:04;;;;;;;17.17;3.75;;;;;;;7.95;100.00;102214.75;5279439;28;20081;-80
2022/02/05 09:52:34;;;;;;;17.17;3.40;;;;;;;8.04;100.00;102227.41;5258877;28;20023;-80
2022/02/05 09:55:05;;;;;;;14.35;3.33;;;;;;;7.98;100.00;102219.00;5277468;28;20099;-80
2022/02/05 09:57:36;;;;;;;13.35;4.13;;;;;;;7.96;100.00;102213.75;5276696;28;20032;-80
2022/02/05 10:00:13;;;;;;;12.88;5.28;;;;;;;8.05;100.00;102214.91;5276112;28;20027;-80
2022/02/05 10:02:49;;;;;;;11.18;2.90;;;;;;;8.11;100.00;102197.53;5276162;28;20061;-79
2022/02/05 10:05:22;;;;;;;13.45;4.72;;;;;;;8.04;100.00;102192.66;5275044;28;20020;-79
2022/02/05 10:08:08;;;;;;;14.50;6.97;;;;;;;8.09;100.00;102205.69;5277446;28;20020;-79
2022/02/05 10:10:41;;;;;;;13.52;3.40;;;;;;;7.79;100.00;102200.84;5278388;28;20066;-79
2022/02/05 10:13:18;;;;;;;15.00;3.78;;;;;;;7.78;100.00;102200.00;5277637;28;20024;-79
2022/02/05 10:15:53;;;;;;;14.70;2.70;;;;;;;7.26;100.00;102208.31;5277455;28;20027;-80
2022/02/05 10:18:28;;;;;;;11.82;2.83;;;;;;;7.29;100.00;102204.59;5277519;28;20023;-79
2022/02/05 10:21:00;;;;;;;14.20;2.97;;;;;;;7.40;100.00;102210.84;5277703;28;20035;-79
2022/02/05 10:23:31;;;;;;;11.63;2.40;;;;;;;7.44;100.00;102220.34;5278392;28;20020;-79
2022/02/05 10:26:02;;;;;;;12.05;2.92;;;;;;;7.45;100.00;102215.84;5277262;28;20030;-81
2022/02/05 10:28:32;;;;;;;10.20;2.40;;;;;;;7.33;100.00;102214.94;5275493;28;20035;-81
2022/02/05 10:31:03;;;;;;;11.45;2.42;;;;;;;7.39;100.00;102209.13;5258944;28;20031;-81
2022/02/05 10:33:35;;;;;;;13.23;2.65;;;;;;;7.46;100.00;102204.19;5276475;28;20027;-80
2022/02/05 10:44:36;;;;;;;12.00;3.63;;;;;;;7.48;100.00;102204.91;5271006;28;20036;-80
2022/02/05 10:47:08;;;;;;;10.50;3.63;;;;;;;7.57;100.00;102203.41;5276998;28;20483;-84
2022/02/05 10:49:46;;;;;;;12.65;2.70;;;;;;;7.66;100.00;102198.22;5243139;28;20055;-81
2022/02/05 10:52:35;;;;;;;17.17;5.45;;;;;;;7.85;100.00;102197.69;5276191;28;20114;-80
2022/02/05 10:55:19;;;;;;;14.40;3.05;;;;;;;7.78;100.00;102193.78;5257930;28;20678;-81
2022/02/05 11:06:00;;;;;;;9.60;2.92;;;;;;;7.68;100.00;102176.72;5274580;28;20023;-84
2022/02/05 11:08:31;;;;;;;10.50;2.42;;;;;;;7.58;100.00;102181.06;5256162;28;20024;-83
2022/02/05 11:13:56;;;;;;;15.35;3.15;;;;;;;7.70;100.00;102166.81;5276618;28;20020;-83
2022/02/05 11:19:16;;;;;;;9.65;2.60;;;;;;;7.53;100.00;102166.25;5274728;28;20031;-83
2022/02/05 11:21:48;;;;;;;13.68;2.40;;;;;;;7.45;100.00;102168.63;5257573;28;20596;-82
2022/02/05 11:24:25;;;;;;;9.27;3.28;;;;;;;7.58;100.00;102163.25;5259514;28;20073;-83
2022/02/05 11:26:56;;;;;;;25.55;6.05;;;;;;;7.57;100.00;102155.31;5254891;28;20028;-83
2022/02/05 11:29:31;;;;;;;20.20;4.30;;;;;;;7.65;100.00;102155.59;5246751;28;20069;-82
2022/02/05 11:32:27;;;;;;;11.13;2.42;;;;;;;7.62;100.00;102151.34;5260424;28;20432;-82
2022/02/05 11:35:12;;;;;;;16.97;3.03;;;;;;;7.59;100.00;102153.41;5277714;28;20104;-82
2022/02/05 11:37:53;;;;;;;;;;;;;;;7.69;100.00;102155.25;5258893;28;20035;-83
2022/02/05 11:40:45;;;;;;;11.68;2.00;;;;;;;7.60;100.00;102158.63;5271450;28;19908;-83
2022/02/05 11:43:17;;;;;;;12.80;2.50;;;;;;;7.59;100.00;102158.75;5275446;28;20027;-84
2022/02/05 11:46:28;;;;;;;10.50;1.77;;;;;;;7.79;100.00;102155.41;5257169;28;20490;-83
2022/02/05 11:48:59;;;;;;;11.75;2.05;;;;;;;8.02;100.00;102161.66;5274950;28;20048;-83
2022/02/05 11:51:48;;;;;;;10.68;2.58;;;;;;;8.01;100.00;102157.31;5257596;28;20026;-87
2022/02/05 11:54:19;;;;;;;16.42;5.90;;;;;;;8.22;100.00;102166.31;5259700;28;20028;-79
2022/02/05 11:59:55;;;;;;;10.80;2.53;;;;;;;8.17;100.00;102148.94;5254129;28;20032;-82
2022/02/05 12:02:37;;;;;;;9.55;2.70;;;;;;;8.26;100.00;102156.25;5269321;28;20038;-81
2022/02/05 12:08:23;;;;;;;10.73;2.25;;;;;;;7.96;100.00;102138.94;5260499;28;20103;-81
2022/02/05 12:10:57;;;;;;;10.13;2.42;;;;;;;8.03;100.00;102140.19;5257911;28;20066;-81
2022/02/05 12:13:35;;;;;;;9.00;1.63;;;;;;;7.93;100.00;102133.84;5256537;28;20011;-81
2022/02/05 12:16:07;;;;;;;11.63;2.20;;;;;;;7.94;100.00;102121.34;5274356;28;20030;-81
2022/02/05 12:19:17;;;;;;;7.82;1.80;;;;;;;8.02;100.00;102125.09;5276815;28;20036;-81
2022/02/05 12:25:29;;;;;;;9.98;1.58;;;;;;;7.99;100.00;102108.47;5279645;28;20425;-83
2022/02/05 12:28:28;;;;;;;15.80;2.20;;;;;;;8.14;100.00;102109.97;5279917;28;20034;-83
2022/02/05 12:31:00;;;;;;;13.02;4.00;;;;;;;8.27;100.00;102109.81;5261539;28;20032;-82
2022/02/05 12:33:46;;;;;;;14.90;2.85;;;;;;;8.30;100.00;102118.47;5261915;28;20080;-82
2022/02/05 12:36:30;;;;;;;11.07;1.77;;;;;;;8.11;100.00;102114.69;5276924;28;20032;-81
2022/02/05 12:39:04;;;;;;;7.95;1.58;;;;;;;8.05;100.00;102108.84;5246231;28;20020;-82
2022/02/05 12:41:36;;;;;;;6.25;1.85;;;;;;;7.99;100.00;102103.13;5263441;28;20041;-82
2022/02/05 12:44:07;;;;;;;6.90;1.60;;;;;;;8.13;100.00;102110.91;5281441;28;20020;-82
2022/02/05 12:46:53;;;;;;;13.60;1.98;;;;;;;8.14;100.00;102109.09;5279311;28;20035;-82
2022/02/05 12:49:28;;;;;;;10.98;1.80;;;;;;;8.18;100.00;102116.78;5277176;28;20373;-81
2022/02/05 12:52:00;;;;;;;;;;;;;;;8.13;100.00;102116.25;5278518;28;20443;-82
2022/02/05 12:54:33;;;;;;;9.52;1.92;;;;;;;8.17;100.00;102106.19;5278685;28;20305;-82
2022/02/05 12:57:04;;;;;;;12.10;1.80;;;;;;;8.19;100.00;102094.41;5277531;28;20026;-81
2022/02/05 12:59:38;;;;;;;6.68;1.77;;;;;;;8.14;100.00;102093.06;5278734;28;20035;-83
2022/02/05 13:02:11;;;;;;;12.60;2.28;;;;;;;8.03;100.00;102107.25;5281193;28;20050;-82
2022/02/05 13:04:46;;;;;;;8.90;1.95;;;;;;;8.05;100.00;102087.47;5286356;28;20031;-83
2022/02/05 13:07:21;;;;;;;16.25;2.30;;;;;;;8.35;100.00;102083.34;5265238;28;20026;-81
2022/02/05 13:09:57;;;;;;;6.33;1.80;;;;;;;8.30;100.00;102075.69;5280771;28;20020;-80
2022/02/05 13:12:41;;;;;;;10.40;2.03;;;;;;;8.29;100.00;102073.16;5280689;28;20273;-81
2022/02/05 13:18:17;;;;;;;12.23;2.33;;;;;;;8.39;100.00;102082.16;5263431;28;20015;-81
2022/02/05 13:26:42;;;;;;;12.10;2.15;;;;;;;8.40;100.00;102069.66;5272195;28;20027;-80
2022/02/05 13:29:19;;;;;;;12.20;3.00;;;;;;;8.38;100.00;102074.25;5278816;28;20076;-80
2022/02/05 13:34:40;;;;;;;11.70;1.73;;;;;;;8.28;100.00;102071.41;5280525;28;20107;-80
2022/02/05 13:37:18;;;;;;;18.95;7.45;;;;;;;8.25;100.00;102072.53;5277900;28;20164;-81
2022/02/05 13:39:59;;;;;;;12.32;2.28;;;;;;;8.20;100.00;102063.19;5281982;28;20062;-80
2022/02/05 13:42:35;;;;;;;12.52;2.10;;;;;;;8.24;100.00;102053.94;5282817;28;20123;-79
2022/02/05 13:47:57;;;;;;;13.48;2.30;;;;;;;8.46;100.00;102050.44;5289881;28;20044;-80
2022/02/05 13:50:31;;;;;;;12.75;1.77;;;;;;;8.45;100.00;102062.97;5284040;28;20149;-80
2022/02/05 13:53:04;;;;;;;13.18;1.95;;;;;;;8.27;100.00;102056.34;5279418;28;20019;-80
2022/02/05 13:55:40;;;;;;;9.07;2.15;;;;;;;8.19;100.00;102064.16;5276226;28;20042;-80
2022/02/05 13:58:35;;;;;;;17.95;1.98;;;;;;;8.05;100.00;102058.06;5276364;28;20039;-79
2022/02/05 14:01:06;;;;;;;11.88;1.90;;;;;;;7.96;100.00;102056.09;5276641;28;20441;-80
2022/02/05 14:03:40;;;;;;;10.63;2.33;;;;;;;7.92;100.00;102051.97;5277292;28;20032;-80
2022/02/05 14:06:13;;;;;;;12.82;2.13;;;;;;;7.86;100.00;102057.78;5276363;28;20031;-80
2022/02/05 14:08:47;;;;;;;10.10;1.70;;;;;;;7.87;100.00;102058.63;5259211;28;20130;-79
2022/02/05 14:11:36;;;;;;;7.82;2.38;;;;;;;7.86;100.00;102049.78;5257754;28;20457;-81
2022/02/05 14:14:12;;;;;;;13.02;1.58;;;;;;;7.82;100.00;102042.13;5259630;28;20059;-79
2022/02/05 14:16:47;;;;;;;11.95;2.55;;;;;;;7.84;100.00;102059.75;5276408;28;20016;-85
2022/02/05 14:19:36;;;;;;;11.60;1.75;;;;;;;7.99;100.00;102053.19;5242737;28;20031;-77
2022/02/05 14:22:18;;;;;;;12.38;2.00;;;;;;;7.96;100.00;102053.44;5274159;28;20048;-77
2022/02/05 14:25:33;;;;;;;12.85;1.77;;;;;;;8.10;100.00;102052.34;5275874;28;20089;-81
2022/02/05 14:28:13;;;;;;;9.07;1.70;;;;;;;8.07;100.00;102044.56;5274566;28;20020;-79
2022/02/05 14:31:02;;;;;;;10.98;2.10;;;;;;;8.11;100.00;102031.81;5273897;28;20036;-80
2022/02/05 14:33:43;;;;;;;11.02;1.80;;;;;;;8.20;100.00;102034.63;5275372;28;20019;-80
2022/02/05 14:42:31;;;;;;;14.13;2.10;;;;;;;8.27;100.00;102027.78;5261477;28;20036;-80
2022/02/05 14:45:03;;;;;;;21.42;3.15;;;;;;;8.43;100.00;102027.44;5277340;28;20073;-80
2022/02/05 14:47:33;;;;;;;10.82;1.77;;;;;;;8.47;100.00;102036.94;5275972;28;20681;-80
2022/02/05 14:50:06;;;;;;;16.80;2.38;;;;;;;8.37;100.00;102032.44;5278925;28;20114;-80
2022/02/05 14:52:36;;;;;;;13.57;2.22;;;;;;;8.28;100.00;102036.66;5274813;28;20027;-80
2022/02/05 14:55:07;;;;;;;10.35;2.08;;;;;;;8.18;100.00;102033.03;5257638;28;20023;-81
2022/02/05 14:57:38;;;;;;;15.63;1.92;;;;;;;8.11;100.00;102021.97;5275555;28;20108;-79